sensor_id;sensor_type;location;lat;lon;timestamp;P1;durP1;ratioP1;P2;durP2;ratioP2
7761;SDS011;3925;48.636;9.516;2023-03-03T00:01:05;40.23;;;27.27;;
7761;SDS011;3925;48.636;9.516;2023-03-03T00:03:32;35.33;;;25.03;;
7761;SDS011;3925;48.636;9.516;2023-03-03T00:05:59;39.83;;;27.43;;
7761;SDS011;3925;48.636;9.516;2023-03-03T00:08:28;44.30;;;27.67;;
7761;SDS011;3925;48.636;9.516;2023-03-03T00:10:56;36.73;;;25.90;;
7761;SDS011;3925;48.636;9.516;2023-03-03T00:13:25;33.83;;;22.93;;
7761;SDS011;3925;48.636;9.516;2023-03-03T00:15:54;30.43;;;21.70;;
7761;SDS011;3925;48.636;9.516;2023-03-03T00:18:35;36.17;;;23.73;;
7761;SDS011;3925;48.636;9.516;2023-03-03T00:21:10;32.10;;;22.50;;
7761;SDS011;3925;48.636;9.516;2023-03-03T00:23:47;33.00;;;22.90;;
7761;SDS011;3925;48.636;9.516;2023-03-03T00:26:15;30.20;;;21.63;;
7761;SDS011;3925;48.636;9.516;2023-03-03T00:28:47;30.33;;;21.20;;
7761;SDS011;3925;48.636;9.516;2023-03-03T00:31:17;30.20;;;23.50;;
7761;SDS011;3925;48.636;9.516;2023-03-03T00:33:47;31.13;;;23.40;;
7761;SDS011;3925;48.636;9.516;2023-03-03T00:36:23;36.07;;;24.03;;
7761;SDS011;3925;48.636;9.516;2023-03-03T00:38:57;37.97;;;25.57;;
7761;SDS011;3925;48.636;9.516;2023-03-03T00:41:37;42.13;;;24.70;;
7761;SDS011;3925;48.636;9.516;2023-03-03T00:44:16;33.87;;;22.03;;
7761;SDS011;3925;48.636;9.516;2023-03-03T00:47:15;34.40;;;23.23;;
7761;SDS011;3925;48.636;9.516;2023-03-03T00:49:51;33.20;;;24.10;;
7761;SDS011;3925;48.636;9.516;2023-03-03T00:52:18;31.27;;;22.77;;
7761;SDS011;3925;48.636;9.516;2023-03-03T00:54:46;33.70;;;23.90;;
7761;SDS011;3925;48.636;9.516;2023-03-03T00:57:13;36.00;;;24.43;;
7761;SDS011;3925;48.636;9.516;2023-03-03T00:59:40;33.70;;;23.67;;
7761;SDS011;3925;48.636;9.516;2023-03-03T01:02:06;35.37;;;22.80;;
7761;SDS011;3925;48.636;9.516;2023-03-03T01:04:35;38.37;;;24.83;;
7761;SDS011;3925;48.636;9.516;2023-03-03T01:07:01;34.20;;;21.93;;
7761;SDS011;3925;48.636;9.516;2023-03-03T01:09:28;37.40;;;25.10;;
7761;SDS011;3925;48.636;9.516;2023-03-03T01:11:55;36.80;;;26.37;;
7761;SDS011;3925;48.636;9.516;2023-03-03T01:14:22;34.03;;;24.90;;
7761;SDS011;3925;48.636;9.516;2023-03-03T01:16:49;35.80;;;26.07;;
7761;SDS011;3925;48.636;9.516;2023-03-03T01:19:16;34.23;;;23.77;;
7761;SDS011;3925;48.636;9.516;2023-03-03T01:21:44;34.63;;;23.23;;
7761;SDS011;3925;48.636;9.516;2023-03-03T01:24:11;35.00;;;25.07;;
7761;SDS011;3925;48.636;9.516;2023-03-03T01:26:38;35.97;;;26.30;;
7761;SDS011;3925;48.636;9.516;2023-03-03T01:29:05;39.00;;;25.57;;
7761;SDS011;3925;48.636;9.516;2023-03-03T01:31:31;39.43;;;25.20;;
7761;SDS011;3925;48.636;9.516;2023-03-03T01:33:58;39.00;;;24.50;;
7761;SDS011;3925;48.636;9.516;2023-03-03T01:36:26;35.80;;;26.70;;
7761;SDS011;3925;48.636;9.516;2023-03-03T01:38:55;33.90;;;23.80;;
7761;SDS011;3925;48.636;9.516;2023-03-03T01:41:22;30.83;;;24.37;;
7761;SDS011;3925;48.636;9.516;2023-03-03T01:43:53;34.60;;;24.50;;
7761;SDS011;3925;48.636;9.516;2023-03-03T01:49:14;34.70;;;24.03;;
7761;SDS011;3925;48.636;9.516;2023-03-03T01:51:48;43.23;;;26.93;;
7761;SDS011;3925;48.636;9.516;2023-03-03T01:54:20;37.17;;;26.43;;
7761;SDS011;3925;48.636;9.516;2023-03-03T01:56:51;42.77;;;29.20;;
7761;SDS011;3925;48.636;9.516;2023-03-03T01:59:24;35.37;;;23.53;;
7761;SDS011;3925;48.636;9.516;2023-03-03T02:01:54;42.67;;;26.70;;
7761;SDS011;3925;48.636;9.516;2023-03-03T02:04:21;45.93;;;30.10;;
7761;SDS011;3925;48.636;9.516;2023-03-03T02:06:51;47.57;;;30.40;;
7761;SDS011;3925;48.636;9.516;2023-03-03T02:09:25;47.10;;;29.37;;
7761;SDS011;3925;48.636;9.516;2023-03-03T02:11:58;47.07;;;30.07;;
7761;SDS011;3925;48.636;9.516;2023-03-03T02:14:27;43.60;;;29.67;;
7761;SDS011;3925;48.636;9.516;2023-03-03T02:16:54;47.23;;;32.03;;
7761;SDS011;3925;48.636;9.516;2023-03-03T02:19:23;40.63;;;27.90;;
7761;SDS011;3925;48.636;9.516;2023-03-03T02:21:55;42.90;;;27.13;;
7761;SDS011;3925;48.636;9.516;2023-03-03T02:24:26;49.77;;;29.87;;
7761;SDS011;3925;48.636;9.516;2023-03-03T02:26:58;36.47;;;25.60;;
7761;SDS011;3925;48.636;9.516;2023-03-03T02:29:25;35.80;;;25.30;;
7761;SDS011;3925;48.636;9.516;2023-03-03T02:31:52;33.03;;;25.50;;
7761;SDS011;3925;48.636;9.516;2023-03-03T02:34:19;39.60;;;26.30;;
7761;SDS011;3925;48.636;9.516;2023-03-03T02:36:46;36.53;;;25.03;;
7761;SDS011;3925;48.636;9.516;2023-03-03T02:39:13;39.97;;;27.10;;
7761;SDS011;3925;48.636;9.516;2023-03-03T02:41:44;38.90;;;26.10;;
7761;SDS011;3925;48.636;9.516;2023-03-03T02:44:19;36.60;;;25.10;;
7761;SDS011;3925;48.636;9.516;2023-03-03T02:46:47;36.77;;;25.73;;
7761;SDS011;3925;48.636;9.516;2023-03-03T02:49:16;37.00;;;24.40;;
7761;SDS011;3925;48.636;9.516;2023-03-03T02:51:44;37.47;;;27.20;;
7761;SDS011;3925;48.636;9.516;2023-03-03T02:54:12;31.57;;;23.97;;
7761;SDS011;3925;48.636;9.516;2023-03-03T02:56:40;34.23;;;25.17;;
7761;SDS011;3925;48.636;9.516;2023-03-03T02:59:07;40.57;;;25.20;;
7761;SDS011;3925;48.636;9.516;2023-03-03T03:01:36;38.47;;;25.53;;
7761;SDS011;3925;48.636;9.516;2023-03-03T03:04:04;39.23;;;25.80;;
7761;SDS011;3925;48.636;9.516;2023-03-03T03:06:33;33.10;;;23.67;;
7761;SDS011;3925;48.636;9.516;2023-03-03T03:09:00;39.03;;;24.93;;
7761;SDS011;3925;48.636;9.516;2023-03-03T03:11:27;36.43;;;25.03;;
7761;SDS011;3925;48.636;9.516;2023-03-03T03:13:54;36.13;;;25.13;;
7761;SDS011;3925;48.636;9.516;2023-03-03T03:16:21;34.23;;;24.53;;
7761;SDS011;3925;48.636;9.516;2023-03-03T03:18:49;43.90;;;26.60;;
7761;SDS011;3925;48.636;9.516;2023-03-03T03:21:16;36.90;;;25.83;;
7761;SDS011;3925;48.636;9.516;2023-03-03T03:23:43;33.30;;;24.73;;
7761;SDS011;3925;48.636;9.516;2023-03-03T03:26:11;42.00;;;25.93;;
7761;SDS011;3925;48.636;9.516;2023-03-03T03:28:38;32.40;;;24.80;;
7761;SDS011;3925;48.636;9.516;2023-03-03T03:31:05;33.63;;;23.00;;
7761;SDS011;3925;48.636;9.516;2023-03-03T03:33:33;29.67;;;23.50;;
7761;SDS011;3925;48.636;9.516;2023-03-03T03:36:02;31.90;;;23.60;;
7761;SDS011;3925;48.636;9.516;2023-03-03T03:38:30;34.73;;;25.07;;
7761;SDS011;3925;48.636;9.516;2023-03-03T03:40:58;36.80;;;23.07;;
7761;SDS011;3925;48.636;9.516;2023-03-03T03:43:24;29.13;;;22.17;;
7761;SDS011;3925;48.636;9.516;2023-03-03T03:45:51;34.03;;;24.63;;
7761;SDS011;3925;48.636;9.516;2023-03-03T03:48:18;32.30;;;24.07;;
7761;SDS011;3925;48.636;9.516;2023-03-03T03:50:45;33.87;;;24.37;;
7761;SDS011;3925;48.636;9.516;2023-03-03T03:53:14;34.73;;;25.07;;
7761;SDS011;3925;48.636;9.516;2023-03-03T03:55:41;33.73;;;23.07;;
7761;SDS011;3925;48.636;9.516;2023-03-03T03:58:09;40.60;;;25.20;;
7761;SDS011;3925;48.636;9.516;2023-03-03T04:00:39;35.83;;;25.07;;
7761;SDS011;3925;48.636;9.516;2023-03-03T04:03:07;42.63;;;27.10;;
7761;SDS011;3925;48.636;9.516;2023-03-03T04:05:33;39.83;;;25.27;;
7761;SDS011;3925;48.636;9.516;2023-03-03T04:08:00;39.40;;;26.00;;
7761;SDS011;3925;48.636;9.516;2023-03-03T04:10:29;34.57;;;25.17;;
7761;SDS011;3925;48.636;9.516;2023-03-03T04:12:55;40.70;;;25.33;;
7761;SDS011;3925;48.636;9.516;2023-03-03T04:15:22;36.93;;;27.20;;
7761;SDS011;3925;48.636;9.516;2023-03-03T04:17:49;40.97;;;26.23;;
7761;SDS011;3925;48.636;9.516;2023-03-03T04:20:16;38.17;;;24.70;;
7761;SDS011;3925;48.636;9.516;2023-03-03T04:22:43;36.23;;;24.70;;
7761;SDS011;3925;48.636;9.516;2023-03-03T04:25:10;35.80;;;25.67;;
7761;SDS011;3925;48.636;9.516;2023-03-03T04:27:41;41.50;;;26.90;;
7761;SDS011;3925;48.636;9.516;2023-03-03T04:30:09;40.60;;;27.50;;
7761;SDS011;3925;48.636;9.516;2023-03-03T04:32:36;39.77;;;26.30;;
7761;SDS011;3925;48.636;9.516;2023-03-03T04:35:03;40.90;;;27.53;;
7761;SDS011;3925;48.636;9.516;2023-03-03T04:37:30;44.20;;;28.30;;
7761;SDS011;3925;48.636;9.516;2023-03-03T04:39:57;40.60;;;26.97;;
7761;SDS011;3925;48.636;9.516;2023-03-03T04:42:24;43.97;;;27.97;;
7761;SDS011;3925;48.636;9.516;2023-03-03T04:44:54;39.60;;;26.33;;
7761;SDS011;3925;48.636;9.516;2023-03-03T04:47:21;40.87;;;26.73;;
7761;SDS011;3925;48.636;9.516;2023-03-03T04:49:48;41.50;;;26.80;;
7761;SDS011;3925;48.636;9.516;2023-03-03T04:52:14;42.70;;;28.73;;
7761;SDS011;3925;48.636;9.516;2023-03-03T04:54:41;40.40;;;24.67;;
7761;SDS011;3925;48.636;9.516;2023-03-03T04:57:08;43.27;;;28.90;;
7761;SDS011;3925;48.636;9.516;2023-03-03T04:59:35;40.30;;;24.93;;
7761;SDS011;3925;48.636;9.516;2023-03-03T05:02:03;41.33;;;26.57;;
7761;SDS011;3925;48.636;9.516;2023-03-03T05:04:30;41.30;;;26.80;;
7761;SDS011;3925;48.636;9.516;2023-03-03T05:06:57;38.97;;;26.27;;
7761;SDS011;3925;48.636;9.516;2023-03-03T05:09:24;37.20;;;26.77;;
7761;SDS011;3925;48.636;9.516;2023-03-03T05:11:51;42.30;;;26.60;;
7761;SDS011;3925;48.636;9.516;2023-03-03T05:14:18;38.20;;;24.30;;
7761;SDS011;3925;48.636;9.516;2023-03-03T05:16:45;39.83;;;25.13;;
7761;SDS011;3925;48.636;9.516;2023-03-03T05:19:13;40.57;;;26.03;;
7761;SDS011;3925;48.636;9.516;2023-03-03T05:21:40;39.53;;;26.00;;
7761;SDS011;3925;48.636;9.516;2023-03-03T05:24:07;40.30;;;26.70;;
7761;SDS011;3925;48.636;9.516;2023-03-03T05:26:34;40.03;;;27.70;;
7761;SDS011;3925;48.636;9.516;2023-03-03T05:29:02;43.23;;;26.67;;
7761;SDS011;3925;48.636;9.516;2023-03-03T05:31:29;42.00;;;27.40;;
7761;SDS011;3925;48.636;9.516;2023-03-03T05:33:56;42.67;;;28.43;;
7761;SDS011;3925;48.636;9.516;2023-03-03T05:36:24;47.33;;;28.20;;
7761;SDS011;3925;48.636;9.516;2023-03-03T05:38:51;36.23;;;25.87;;
7761;SDS011;3925;48.636;9.516;2023-03-03T05:41:18;36.00;;;25.00;;
7761;SDS011;3925;48.636;9.516;2023-03-03T05:43:45;37.97;;;24.83;;
7761;SDS011;3925;48.636;9.516;2023-03-03T05:46:12;40.13;;;26.70;;
7761;SDS011;3925;48.636;9.516;2023-03-03T05:48:39;39.67;;;26.93;;
7761;SDS011;3925;48.636;9.516;2023-03-03T05:51:06;37.73;;;25.33;;
7761;SDS011;3925;48.636;9.516;2023-03-03T05:53:34;39.80;;;27.83;;
7761;SDS011;3925;48.636;9.516;2023-03-03T05:56:01;37.10;;;25.27;;
7761;SDS011;3925;48.636;9.516;2023-03-03T05:58:28;38.50;;;26.30;;
7761;SDS011;3925;48.636;9.516;2023-03-03T06:00:55;37.37;;;26.13;;
7761;SDS011;3925;48.636;9.516;2023-03-03T06:03:22;41.43;;;27.07;;
7761;SDS011;3925;48.636;9.516;2023-03-03T06:05:49;41.57;;;24.87;;
7761;SDS011;3925;48.636;9.516;2023-03-03T06:08:16;36.40;;;25.83;;
7761;SDS011;3925;48.636;9.516;2023-03-03T06:10:44;37.93;;;26.20;;
7761;SDS011;3925;48.636;9.516;2023-03-03T06:13:11;36.47;;;25.43;;
7761;SDS011;3925;48.636;9.516;2023-03-03T06:15:38;38.63;;;28.33;;
7761;SDS011;3925;48.636;9.516;2023-03-03T06:18:05;36.80;;;26.67;;
7761;SDS011;3925;48.636;9.516;2023-03-03T06:20:32;35.67;;;24.90;;
7761;SDS011;3925;48.636;9.516;2023-03-03T06:22:59;42.60;;;25.90;;
7761;SDS011;3925;48.636;9.516;2023-03-03T06:25:26;40.80;;;28.53;;
7761;SDS011;3925;48.636;9.516;2023-03-03T06:27:55;42.60;;;27.80;;
7761;SDS011;3925;48.636;9.516;2023-03-03T06:30:22;39.63;;;27.77;;
7761;SDS011;3925;48.636;9.516;2023-03-03T06:32:51;40.30;;;28.97;;
7761;SDS011;3925;48.636;9.516;2023-03-03T06:35:17;41.10;;;26.90;;
7761;SDS011;3925;48.636;9.516;2023-03-03T06:37:44;43.20;;;29.17;;
7761;SDS011;3925;48.636;9.516;2023-03-03T06:40:14;42.23;;;27.90;;
7761;SDS011;3925;48.636;9.516;2023-03-03T06:42:41;40.83;;;26.73;;
7761;SDS011;3925;48.636;9.516;2023-03-03T06:45:10;41.30;;;29.20;;
7761;SDS011;3925;48.636;9.516;2023-03-03T06:47:37;38.43;;;27.23;;
7761;SDS011;3925;48.636;9.516;2023-03-03T06:50:04;38.97;;;26.40;;
7761;SDS011;3925;48.636;9.516;2023-03-03T06:52:32;43.20;;;29.30;;
7761;SDS011;3925;48.636;9.516;2023-03-03T06:55:00;40.10;;;26.80;;
7761;SDS011;3925;48.636;9.516;2023-03-03T06:57:35;38.13;;;26.33;;
7761;SDS011;3925;48.636;9.516;2023-03-03T07:00:09;39.87;;;26.03;;
7761;SDS011;3925;48.636;9.516;2023-03-03T07:02:42;40.03;;;27.57;;
7761;SDS011;3925;48.636;9.516;2023-03-03T07:05:10;40.23;;;25.40;;
7761;SDS011;3925;48.636;9.516;2023-03-03T07:07:40;42.23;;;28.37;;
7761;SDS011;3925;48.636;9.516;2023-03-03T07:10:12;40.77;;;28.63;;
7761;SDS011;3925;48.636;9.516;2023-03-03T07:12:45;44.60;;;28.60;;
7761;SDS011;3925;48.636;9.516;2023-03-03T07:15:13;43.00;;;28.53;;
7761;SDS011;3925;48.636;9.516;2023-03-03T07:17:45;41.07;;;27.10;;
7761;SDS011;3925;48.636;9.516;2023-03-03T07:20:16;38.97;;;27.33;;
7761;SDS011;3925;48.636;9.516;2023-03-03T07:22:45;42.67;;;28.00;;
7761;SDS011;3925;48.636;9.516;2023-03-03T07:25:18;42.30;;;27.70;;
7761;SDS011;3925;48.636;9.516;2023-03-03T07:27:47;40.10;;;26.60;;
7761;SDS011;3925;48.636;9.516;2023-03-03T07:30:22;42.23;;;27.20;;
7761;SDS011;3925;48.636;9.516;2023-03-03T07:32:51;44.53;;;28.90;;
7761;SDS011;3925;48.636;9.516;2023-03-03T07:35:34;42.67;;;30.30;;
7761;SDS011;3925;48.636;9.516;2023-03-03T07:38:10;43.40;;;29.30;;
7761;SDS011;3925;48.636;9.516;2023-03-03T07:40:55;43.00;;;28.77;;
7761;SDS011;3925;48.636;9.516;2023-03-03T07:43:30;42.63;;;28.03;;
7761;SDS011;3925;48.636;9.516;2023-03-03T07:46:05;36.50;;;26.13;;
7761;SDS011;3925;48.636;9.516;2023-03-03T07:48:52;42.77;;;29.30;;
7761;SDS011;3925;48.636;9.516;2023-03-03T07:51:21;41.33;;;29.30;;
7761;SDS011;3925;48.636;9.516;2023-03-03T07:53:51;41.00;;;27.53;;
7761;SDS011;3925;48.636;9.516;2023-03-03T07:56:21;35.60;;;26.30;;
7761;SDS011;3925;48.636;9.516;2023-03-03T07:58:53;43.97;;;28.90;;
7761;SDS011;3925;48.636;9.516;2023-03-03T08:01:30;43.87;;;27.87;;
7761;SDS011;3925;48.636;9.516;2023-03-03T08:04:08;36.57;;;25.63;;
7761;SDS011;3925;48.636;9.516;2023-03-03T08:06:45;38.50;;;27.33;;
7761;SDS011;3925;48.636;9.516;2023-03-03T08:12:23;39.10;;;27.63;;
7761;SDS011;3925;48.636;9.516;2023-03-03T08:15:10;40.63;;;28.33;;
7761;SDS011;3925;48.636;9.516;2023-03-03T08:17:43;42.03;;;29.50;;
7761;SDS011;3925;48.636;9.516;2023-03-03T08:23:10;35.67;;;25.33;;
7761;SDS011;3925;48.636;9.516;2023-03-03T08:25:37;38.90;;;28.73;;
7761;SDS011;3925;48.636;9.516;2023-03-03T08:28:05;41.27;;;30.30;;
7761;SDS011;3925;48.636;9.516;2023-03-03T08:30:31;39.33;;;28.67;;
7761;SDS011;3925;48.636;9.516;2023-03-03T08:33:00;46.13;;;28.07;;
7761;SDS011;3925;48.636;9.516;2023-03-03T08:35:27;39.63;;;27.50;;
7761;SDS011;3925;48.636;9.516;2023-03-03T08:37:54;39.17;;;28.50;;
7761;SDS011;3925;48.636;9.516;2023-03-03T08:40:21;36.60;;;28.03;;
7761;SDS011;3925;48.636;9.516;2023-03-03T08:42:48;43.40;;;28.00;;
7761;SDS011;3925;48.636;9.516;2023-03-03T08:45:14;40.60;;;29.07;;
7761;SDS011;3925;48.636;9.516;2023-03-03T08:47:42;41.20;;;27.90;;
7761;SDS011;3925;48.636;9.516;2023-03-03T08:50:10;40.17;;;26.17;;
7761;SDS011;3925;48.636;9.516;2023-03-03T08:52:37;37.57;;;29.00;;
7761;SDS011;3925;48.636;9.516;2023-03-03T08:55:04;37.27;;;28.47;;
7761;SDS011;3925;48.636;9.516;2023-03-03T08:57:32;39.70;;;29.20;;
7761;SDS011;3925;48.636;9.516;2023-03-03T08:59:59;36.67;;;28.03;;
7761;SDS011;3925;48.636;9.516;2023-03-03T09:02:26;39.90;;;29.30;;
7761;SDS011;3925;48.636;9.516;2023-03-03T09:04:52;37.57;;;28.37;;
7761;SDS011;3925;48.636;9.516;2023-03-03T09:07:21;37.80;;;28.30;;
7761;SDS011;3925;48.636;9.516;2023-03-03T09:09:48;34.87;;;27.03;;
7761;SDS011;3925;48.636;9.516;2023-03-03T09:12:15;33.17;;;26.73;;
7761;SDS011;3925;48.636;9.516;2023-03-03T09:14:44;31.90;;;26.27;;
7761;SDS011;3925;48.636;9.516;2023-03-03T09:17:18;36.30;;;25.17;;
7761;SDS011;3925;48.636;9.516;2023-03-03T09:19:50;35.73;;;25.90;;
7761;SDS011;3925;48.636;9.516;2023-03-03T09:22:17;31.53;;;26.73;;
7761;SDS011;3925;48.636;9.516;2023-03-03T09:24:48;28.40;;;24.33;;
7761;SDS011;3925;48.636;9.516;2023-03-03T09:27:18;33.10;;;25.10;;
7761;SDS011;3925;48.636;9.516;2023-03-03T09:29:52;33.77;;;25.67;;
7761;SDS011;3925;48.636;9.516;2023-03-03T09:32:27;31.73;;;24.20;;
7761;SDS011;3925;48.636;9.516;2023-03-03T09:34:58;30.97;;;26.03;;
7761;SDS011;3925;48.636;9.516;2023-03-03T09:37:29;38.13;;;28.80;;
7761;SDS011;3925;48.636;9.516;2023-03-03T09:40:06;31.13;;;25.90;;
7761;SDS011;3925;48.636;9.516;2023-03-03T09:42:55;35.50;;;25.97;;
7761;SDS011;3925;48.636;9.516;2023-03-03T09:45:32;30.73;;;23.20;;
7761;SDS011;3925;48.636;9.516;2023-03-03T09:50:58;35.93;;;26.70;;
7761;SDS011;3925;48.636;9.516;2023-03-03T09:53:40;29.83;;;23.33;;
7761;SDS011;3925;48.636;9.516;2023-03-03T09:56:23;27.90;;;22.97;;
7761;SDS011;3925;48.636;9.516;2023-03-03T09:59:01;33.57;;;23.43;;
7761;SDS011;3925;48.636;9.516;2023-03-03T10:01:49;27.60;;;24.30;;
7761;SDS011;3925;48.636;9.516;2023-03-03T10:04:30;30.20;;;23.80;;
7761;SDS011;3925;48.636;9.516;2023-03-03T10:07:10;30.07;;;24.50;;
7761;SDS011;3925;48.636;9.516;2023-03-03T10:10:01;26.97;;;23.77;;
7761;SDS011;3925;48.636;9.516;2023-03-03T10:12:38;32.27;;;25.87;;
7761;SDS011;3925;48.636;9.516;2023-03-03T10:15:16;29.03;;;24.10;;
7761;SDS011;3925;48.636;9.516;2023-03-03T10:17:51;27.17;;;23.70;;
7761;SDS011;3925;48.636;9.516;2023-03-03T10:20:28;31.17;;;25.70;;
7761;SDS011;3925;48.636;9.516;2023-03-03T10:23:07;28.03;;;23.50;;
7761;SDS011;3925;48.636;9.516;2023-03-03T10:25:48;29.00;;;23.93;;
7761;SDS011;3925;48.636;9.516;2023-03-03T10:31:22;31.30;;;27.20;;
7761;SDS011;3925;48.636;9.516;2023-03-03T10:34:00;28.33;;;25.33;;
7761;SDS011;3925;48.636;9.516;2023-03-03T10:36:44;27.73;;;24.83;;
7761;SDS011;3925;48.636;9.516;2023-03-03T10:39:20;30.40;;;27.20;;
7761;SDS011;3925;48.636;9.516;2023-03-03T10:42:10;29.60;;;26.50;;
7761;SDS011;3925;48.636;9.516;2023-03-03T10:44:57;28.60;;;25.50;;
7761;SDS011;3925;48.636;9.516;2023-03-03T10:47:53;29.07;;;25.93;;
7761;SDS011;3925;48.636;9.516;2023-03-03T10:50:32;32.13;;;25.20;;
7761;SDS011;3925;48.636;9.516;2023-03-03T10:53:15;31.17;;;28.10;;
7761;SDS011;3925;48.636;9.516;2023-03-03T10:55:50;28.03;;;25.13;;
7761;SDS011;3925;48.636;9.516;2023-03-03T11:01:23;27.67;;;25.00;;
7761;SDS011;3925;48.636;9.516;2023-03-03T11:04:07;28.27;;;25.37;;
7761;SDS011;3925;48.636;9.516;2023-03-03T11:06:48;29.90;;;26.57;;
7761;SDS011;3925;48.636;9.516;2023-03-03T11:09:25;30.97;;;27.97;;
7761;SDS011;3925;48.636;9.516;2023-03-03T11:12:04;32.07;;;28.80;;
7761;SDS011;3925;48.636;9.516;2023-03-03T11:14:46;30.77;;;27.53;;
7761;SDS011;3925;48.636;9.516;2023-03-03T11:17:23;31.27;;;28.00;;
7761;SDS011;3925;48.636;9.516;2023-03-03T11:20:04;32.10;;;28.97;;
7761;SDS011;3925;48.636;9.516;2023-03-03T11:22:55;32.90;;;29.17;;
7761;SDS011;3925;48.636;9.516;2023-03-03T11:25:29;33.17;;;29.73;;
7761;SDS011;3925;48.636;9.516;2023-03-03T11:28:07;30.00;;;26.57;;
7761;SDS011;3925;48.636;9.516;2023-03-03T11:30:51;32.43;;;28.93;;
7761;SDS011;3925;48.636;9.516;2023-03-03T11:33:31;29.67;;;26.57;;
7761;SDS011;3925;48.636;9.516;2023-03-03T11:36:08;38.20;;;30.30;;
7761;SDS011;3925;48.636;9.516;2023-03-03T11:38:47;29.97;;;26.70;;
7761;SDS011;3925;48.636;9.516;2023-03-03T11:41:22;28.07;;;24.90;;
7761;SDS011;3925;48.636;9.516;2023-03-03T11:43:56;35.73;;;27.40;;
7761;SDS011;3925;48.636;9.516;2023-03-03T11:46:29;28.93;;;25.83;;
7761;SDS011;3925;48.636;9.516;2023-03-03T11:49:01;31.20;;;27.90;;
7761;SDS011;3925;48.636;9.516;2023-03-03T11:51:37;32.03;;;28.73;;
7761;SDS011;3925;48.636;9.516;2023-03-03T11:54:14;33.77;;;28.30;;
7761;SDS011;3925;48.636;9.516;2023-03-03T11:56:47;28.87;;;25.60;;
7761;SDS011;3925;48.636;9.516;2023-03-03T12:02:04;31.13;;;25.67;;
7761;SDS011;3925;48.636;9.516;2023-03-03T12:04:47;30.00;;;26.13;;
7761;SDS011;3925;48.636;9.516;2023-03-03T12:07:21;31.70;;;27.50;;
7761;SDS011;3925;48.636;9.516;2023-03-03T12:09:59;32.87;;;28.47;;
7761;SDS011;3925;48.636;9.516;2023-03-03T12:12:38;34.37;;;30.13;;
7761;SDS011;3925;48.636;9.516;2023-03-03T12:15:12;30.90;;;26.13;;
7761;SDS011;3925;48.636;9.516;2023-03-03T12:17:55;31.60;;;28.20;;
7761;SDS011;3925;48.636;9.516;2023-03-03T12:20:47;34.53;;;27.23;;
7761;SDS011;3925;48.636;9.516;2023-03-03T12:23:32;36.33;;;30.80;;
7761;SDS011;3925;48.636;9.516;2023-03-03T12:26:12;35.63;;;28.37;;
7761;SDS011;3925;48.636;9.516;2023-03-03T12:28:45;34.30;;;27.13;;
7761;SDS011;3925;48.636;9.516;2023-03-03T12:31:22;31.93;;;26.77;;
7761;SDS011;3925;48.636;9.516;2023-03-03T12:34:00;33.00;;;28.73;;
7761;SDS011;3925;48.636;9.516;2023-03-03T12:39:28;34.20;;;28.00;;
7761;SDS011;3925;48.636;9.516;2023-03-03T12:42:06;31.20;;;24.63;;
7761;SDS011;3925;48.636;9.516;2023-03-03T12:44:39;31.47;;;26.20;;
7761;SDS011;3925;48.636;9.516;2023-03-03T12:47:12;37.63;;;28.57;;
7761;SDS011;3925;48.636;9.516;2023-03-03T12:49:45;32.77;;;26.47;;
7761;SDS011;3925;48.636;9.516;2023-03-03T12:52:29;30.90;;;25.80;;
7761;SDS011;3925;48.636;9.516;2023-03-03T12:55:09;34.00;;;26.07;;
7761;SDS011;3925;48.636;9.516;2023-03-03T12:57:41;34.67;;;26.57;;
7761;SDS011;3925;48.636;9.516;2023-03-03T13:00:22;34.63;;;26.23;;
7761;SDS011;3925;48.636;9.516;2023-03-03T13:02:57;50.83;;;30.50;;
7761;SDS011;3925;48.636;9.516;2023-03-03T13:05:30;34.17;;;28.90;;
7761;SDS011;3925;48.636;9.516;2023-03-03T13:08:13;32.60;;;27.33;;
7761;SDS011;3925;48.636;9.516;2023-03-03T13:11:00;32.97;;;26.10;;
7761;SDS011;3925;48.636;9.516;2023-03-03T13:13:41;31.40;;;26.70;;
7761;SDS011;3925;48.636;9.516;2023-03-03T13:16:14;31.20;;;27.20;;
7761;SDS011;3925;48.636;9.516;2023-03-03T13:18:51;30.20;;;25.80;;
7761;SDS011;3925;48.636;9.516;2023-03-03T13:21:23;32.97;;;26.70;;
7761;SDS011;3925;48.636;9.516;2023-03-03T13:23:57;31.10;;;25.80;;
7761;SDS011;3925;48.636;9.516;2023-03-03T13:26:30;31.50;;;26.03;;
7761;SDS011;3925;48.636;9.516;2023-03-03T13:29:03;32.63;;;25.37;;
7761;SDS011;3925;48.636;9.516;2023-03-03T13:31:39;32.97;;;26.50;;
7761;SDS011;3925;48.636;9.516;2023-03-03T13:34:12;35.40;;;27.50;;
7761;SDS011;3925;48.636;9.516;2023-03-03T13:36:50;28.53;;;24.93;;
7761;SDS011;3925;48.636;9.516;2023-03-03T13:39:24;32.93;;;25.80;;
7761;SDS011;3925;48.636;9.516;2023-03-03T13:41:56;39.23;;;26.87;;
7761;SDS011;3925;48.636;9.516;2023-03-03T13:44:28;29.00;;;25.90;;
7761;SDS011;3925;48.636;9.516;2023-03-03T13:47:05;32.57;;;26.17;;
7761;SDS011;3925;48.636;9.516;2023-03-03T13:49:59;29.33;;;24.67;;
7761;SDS011;3925;48.636;9.516;2023-03-03T13:52:37;31.33;;;27.30;;
7761;SDS011;3925;48.636;9.516;2023-03-03T13:55:15;29.67;;;25.87;;
7761;SDS011;3925;48.636;9.516;2023-03-03T13:57:56;30.80;;;26.37;;
7761;SDS011;3925;48.636;9.516;2023-03-03T14:00:29;37.30;;;28.90;;
7761;SDS011;3925;48.636;9.516;2023-03-03T14:03:12;31.57;;;26.67;;
7761;SDS011;3925;48.636;9.516;2023-03-03T14:05:48;30.97;;;27.00;;
7761;SDS011;3925;48.636;9.516;2023-03-03T14:08:23;34.90;;;27.03;;
7761;SDS011;3925;48.636;9.516;2023-03-03T14:11:09;34.07;;;27.80;;
7761;SDS011;3925;48.636;9.516;2023-03-03T14:13:41;33.13;;;27.07;;
7761;SDS011;3925;48.636;9.516;2023-03-03T14:16:15;28.93;;;25.17;;
7761;SDS011;3925;48.636;9.516;2023-03-03T14:18:50;32.03;;;24.30;;
7761;SDS011;3925;48.636;9.516;2023-03-03T14:21:24;31.67;;;26.10;;
7761;SDS011;3925;48.636;9.516;2023-03-03T14:23:56;34.37;;;27.87;;
7761;SDS011;3925;48.636;9.516;2023-03-03T14:26:28;35.63;;;28.10;;
7761;SDS011;3925;48.636;9.516;2023-03-03T14:29:03;37.20;;;29.83;;
7761;SDS011;3925;48.636;9.516;2023-03-03T14:31:41;40.07;;;27.57;;
7761;SDS011;3925;48.636;9.516;2023-03-03T14:34:13;28.97;;;24.03;;
7761;SDS011;3925;48.636;9.516;2023-03-03T14:36:56;34.07;;;25.90;;
7761;SDS011;3925;48.636;9.516;2023-03-03T14:39:34;32.43;;;25.53;;
7761;SDS011;3925;48.636;9.516;2023-03-03T14:42:09;32.90;;;24.20;;
7761;SDS011;3925;48.636;9.516;2023-03-03T14:44:47;31.77;;;24.60;;
7761;SDS011;3925;48.636;9.516;2023-03-03T14:47:21;35.33;;;27.20;;
7761;SDS011;3925;48.636;9.516;2023-03-03T14:49:51;31.27;;;24.87;;
7761;SDS011;3925;48.636;9.516;2023-03-03T14:52:23;33.50;;;25.47;;
7761;SDS011;3925;48.636;9.516;2023-03-03T14:54:52;29.20;;;23.17;;
7761;SDS011;3925;48.636;9.516;2023-03-03T14:57:36;32.60;;;24.90;;
7761;SDS011;3925;48.636;9.516;2023-03-03T15:00:25;28.00;;;22.97;;
7761;SDS011;3925;48.636;9.516;2023-03-03T15:02:58;29.00;;;24.10;;
7761;SDS011;3925;48.636;9.516;2023-03-03T15:05:28;31.83;;;23.77;;
7761;SDS011;3925;48.636;9.516;2023-03-03T15:07:57;31.77;;;24.80;;
7761;SDS011;3925;48.636;9.516;2023-03-03T15:10:34;32.97;;;25.97;;
7761;SDS011;3925;48.636;9.516;2023-03-03T15:13:11;38.53;;;27.57;;
7761;SDS011;3925;48.636;9.516;2023-03-03T15:16:02;33.40;;;24.63;;
7761;SDS011;3925;48.636;9.516;2023-03-03T15:18:34;31.20;;;23.17;;
7761;SDS011;3925;48.636;9.516;2023-03-03T15:21:29;26.23;;;21.87;;
7761;SDS011;3925;48.636;9.516;2023-03-03T15:23:58;32.63;;;24.67;;
7761;SDS011;3925;48.636;9.516;2023-03-03T15:26:36;33.90;;;24.30;;
7761;SDS011;3925;48.636;9.516;2023-03-03T15:29:13;29.10;;;24.17;;
7761;SDS011;3925;48.636;9.516;2023-03-03T15:31:47;26.70;;;22.77;;
7761;SDS011;3925;48.636;9.516;2023-03-03T15:34:23;32.80;;;23.23;;
7761;SDS011;3925;48.636;9.516;2023-03-03T15:37:05;27.63;;;22.83;;
7761;SDS011;3925;48.636;9.516;2023-03-03T15:39:41;28.80;;;22.40;;
7761;SDS011;3925;48.636;9.516;2023-03-03T15:42:17;32.13;;;24.67;;